首页
METAR-TAF:

METAR-TAF

机场 :

新洛哈, 厄瓜多尔

纬度: 00-05-33N, 经度: 076-52-10W, 海拔: 299米

当前天气观测

该预报发布于36分钟前的13:00 UTC
风速3节,风向北转西北
温度 25°C
湿度 94%
气压 1012 hPa
能見度: 3000
少量云层高于500英尺
散云层高于1000英尺
阴天层高于10000英尺
轻雾

METAR: SENL 141300Z 34003KT 3000 BR FEW005 SCT010 OVC100 25/24 Q1012 RMK A2989

时间: 08:36 (13:36 UTC)


TAF: 丢失

超过4000个机场的气象观测和天气预报(METAR&TAF报告)。

可查询的气象台以黄色和红色小点在地图上表示。

将鼠标移到小点上方,可查看气象台名称。

然后点击查看天气观测和预报。

如需切换地图:点击带黑十字的绿色按钮放大地图;点击带横线的绿色按钮缩小地图;或者点击绿色箭头查看邻近地区的地图。


METAR-TAF: